West Dade, Florida
Current Conditions -  °F | °C
As of 9:53 PM on Wednesday 22 Oct 2014 (Local Time) from KTMB Reporting Station
Light Rain Light Rain  
Wind Chill: 75°   Ceiling: Unl
Heat Index: 75°   Visibility: 9mi
Dew Point: 72°   Wind: 0mph
Humidity: 90%   Direction: NA
Pressure: 29.95"   Gusts: NA
Location:  25.5736°N, 80.7073°W
Report Text: KTMB 230153Z 00000KT 9SM -RA CLR 24/22 A2995 RMK AO2 SLP140 P0001 T02390222
Loading
Personal Weather Stations






























Interactive Weather Map New forecast layout! Learn more

10-Day Weather Forecast

Advertisements
Track Severe Weather on mobile